sensor_id;sensor_type;location;lat;lon;timestamp;P1;durP1;ratioP1;P2;durP2;ratioP2
68985;SDS011;56035;37.534;-122.308;2023-12-04T00:00:01;5.82;;;1.05;;
68985;SDS011;56035;37.534;-122.308;2023-12-04T00:02:29;4.28;;;1.00;;
68985;SDS011;56035;37.534;-122.308;2023-12-04T00:07:22;3.08;;;0.80;;
68985;SDS011;56035;37.534;-122.308;2023-12-04T00:12:15;6.28;;;1.38;;
68985;SDS011;56035;37.534;-122.308;2023-12-04T00:14:43;4.60;;;1.60;;
68985;SDS011;56035;37.534;-122.308;2023-12-04T00:17:09;6.28;;;1.10;;
68985;SDS011;56035;37.534;-122.308;2023-12-04T00:19:37;2.83;;;1.23;;
68985;SDS011;56035;37.534;-122.308;2023-12-04T00:22:04;7.07;;;1.65;;
68985;SDS011;56035;37.534;-122.308;2023-12-04T00:24:30;8.75;;;1.20;;
68985;SDS011;56035;37.534;-122.308;2023-12-04T00:26:57;5.03;;;1.40;;
68985;SDS011;56035;37.534;-122.308;2023-12-04T00:29:24;3.95;;;1.20;;
68985;SDS011;56035;37.534;-122.308;2023-12-04T00:31:50;7.38;;;1.30;;
68985;SDS011;56035;37.534;-122.308;2023-12-04T00:34:17;5.95;;;1.25;;
68985;SDS011;56035;37.534;-122.308;2023-12-04T00:37:02;6.18;;;1.25;;
68985;SDS011;56035;37.534;-122.308;2023-12-04T00:39:29;4.90;;;1.40;;
68985;SDS011;56035;37.534;-122.308;2023-12-04T00:41:56;7.57;;;1.25;;
68985;SDS011;56035;37.534;-122.308;2023-12-04T00:46:49;5.35;;;1.20;;
68985;SDS011;56035;37.534;-122.308;2023-12-04T00:49:16;4.55;;;1.60;;
68985;SDS011;56035;37.534;-122.308;2023-12-04T00:51:43;5.37;;;1.33;;
68985;SDS011;56035;37.534;-122.308;2023-12-04T00:54:10;7.10;;;1.90;;
68985;SDS011;56035;37.534;-122.308;2023-12-04T00:56:40;6.80;;;1.58;;
68985;SDS011;56035;37.534;-122.308;2023-12-04T00:59:08;6.05;;;1.40;;
68985;SDS011;56035;37.534;-122.308;2023-12-04T01:01:38;4.85;;;1.45;;
68985;SDS011;56035;37.534;-122.308;2023-12-04T01:04:05;7.17;;;1.60;;
68985;SDS011;56035;37.534;-122.308;2023-12-04T01:08:58;10.20;;;2.03;;
68985;SDS011;56035;37.534;-122.308;2023-12-04T01:11:25;7.37;;;2.00;;
68985;SDS011;56035;37.534;-122.308;2023-12-04T01:13:53;9.45;;;2.30;;
68985;SDS011;56035;37.534;-122.308;2023-12-04T01:16:20;8.32;;;2.03;;
68985;SDS011;56035;37.534;-122.308;2023-12-04T01:18:46;7.45;;;1.60;;
68985;SDS011;56035;37.534;-122.308;2023-12-04T01:21:14;7.77;;;2.57;;
68985;SDS011;56035;37.534;-122.308;2023-12-04T01:26:07;8.07;;;2.07;;
68985;SDS011;56035;37.534;-122.308;2023-12-04T01:28:35;9.93;;;2.77;;
68985;SDS011;56035;37.534;-122.308;2023-12-04T01:31:02;8.55;;;2.45;;
68985;SDS011;56035;37.534;-122.308;2023-12-04T01:33:29;9.60;;;2.63;;
68985;SDS011;56035;37.534;-122.308;2023-12-04T01:35:56;7.57;;;2.60;;
68985;SDS011;56035;37.534;-122.308;2023-12-04T01:38:22;10.50;;;3.55;;
68985;SDS011;56035;37.534;-122.308;2023-12-04T01:40:49;8.82;;;2.35;;
68985;SDS011;56035;37.534;-122.308;2023-12-04T01:43:21;8.82;;;2.42;;
68985;SDS011;56035;37.534;-122.308;2023-12-04T01:45:48;8.40;;;2.63;;
68985;SDS011;56035;37.534;-122.308;2023-12-04T01:48:15;7.97;;;2.30;;
68985;SDS011;56035;37.534;-122.308;2023-12-04T01:50:41;10.52;;;2.55;;
68985;SDS011;56035;37.534;-122.308;2023-12-04T01:53:08;11.40;;;2.88;;
68985;SDS011;56035;37.534;-122.308;2023-12-04T01:55:35;7.28;;;2.60;;
68985;SDS011;56035;37.534;-122.308;2023-12-04T01:58:03;9.73;;;3.15;;
68985;SDS011;56035;37.534;-122.308;2023-12-04T02:00:30;7.65;;;2.90;;
68985;SDS011;56035;37.534;-122.308;2023-12-04T02:02:57;6.90;;;2.73;;
68985;SDS011;56035;37.534;-122.308;2023-12-04T02:05:24;10.25;;;2.53;;
68985;SDS011;56035;37.534;-122.308;2023-12-04T02:07:55;9.20;;;2.70;;
68985;SDS011;56035;37.534;-122.308;2023-12-04T02:10:22;10.17;;;2.67;;
68985;SDS011;56035;37.534;-122.308;2023-12-04T02:12:49;10.07;;;2.13;;
68985;SDS011;56035;37.534;-122.308;2023-12-04T02:15:16;9.60;;;2.30;;
68985;SDS011;56035;37.534;-122.308;2023-12-04T02:17:45;11.52;;;2.67;;
68985;SDS011;56035;37.534;-122.308;2023-12-04T02:20:15;7.97;;;2.60;;
68985;SDS011;56035;37.534;-122.308;2023-12-04T02:22:42;7.33;;;2.87;;
68985;SDS011;56035;37.534;-122.308;2023-12-04T02:25:09;8.52;;;3.00;;
68985;SDS011;56035;37.534;-122.308;2023-12-04T02:27:54;11.57;;;4.43;;
68985;SDS011;56035;37.534;-122.308;2023-12-04T02:30:23;18.87;;;8.67;;
68985;SDS011;56035;37.534;-122.308;2023-12-04T02:32:50;18.57;;;8.07;;
68985;SDS011;56035;37.534;-122.308;2023-12-04T02:35:19;12.10;;;5.63;;
68985;SDS011;56035;37.534;-122.308;2023-12-04T02:37:47;10.57;;;4.00;;
68985;SDS011;56035;37.534;-122.308;2023-12-04T02:40:13;13.23;;;3.83;;
68985;SDS011;56035;37.534;-122.308;2023-12-04T02:42:41;9.23;;;2.63;;
68985;SDS011;56035;37.534;-122.308;2023-12-04T02:45:08;9.87;;;2.50;;
68985;SDS011;56035;37.534;-122.308;2023-12-04T02:47:35;8.60;;;3.17;;
68985;SDS011;56035;37.534;-122.308;2023-12-04T02:50:02;12.53;;;3.50;;
68985;SDS011;56035;37.534;-122.308;2023-12-04T02:52:30;9.23;;;3.57;;
68985;SDS011;56035;37.534;-122.308;2023-12-04T02:57:24;12.57;;;3.07;;
68985;SDS011;56035;37.534;-122.308;2023-12-04T02:59:51;11.13;;;3.37;;
68985;SDS011;56035;37.534;-122.308;2023-12-04T03:02:18;12.80;;;3.03;;
68985;SDS011;56035;37.534;-122.308;2023-12-04T03:04:45;7.30;;;2.50;;
68985;SDS011;56035;37.534;-122.308;2023-12-04T03:07:12;9.60;;;3.07;;
68985;SDS011;56035;37.534;-122.308;2023-12-04T03:09:39;10.77;;;3.17;;
68985;SDS011;56035;37.534;-122.308;2023-12-04T03:12:09;9.77;;;3.20;;
68985;SDS011;56035;37.534;-122.308;2023-12-04T03:14:36;10.73;;;2.75;;
68985;SDS011;56035;37.534;-122.308;2023-12-04T03:17:03;10.20;;;3.70;;
68985;SDS011;56035;37.534;-122.308;2023-12-04T03:19:30;14.07;;;6.53;;
68985;SDS011;56035;37.534;-122.308;2023-12-04T03:24:23;12.70;;;5.97;;
68985;SDS011;56035;37.534;-122.308;2023-12-04T03:26:49;11.02;;;6.57;;
68985;SDS011;56035;37.534;-122.308;2023-12-04T03:29:16;11.43;;;5.93;;
68985;SDS011;56035;37.534;-122.308;2023-12-04T03:31:42;10.68;;;4.45;;
68985;SDS011;56035;37.534;-122.308;2023-12-04T03:34:09;10.88;;;4.10;;
68985;SDS011;56035;37.534;-122.308;2023-12-04T03:36:36;10.67;;;3.37;;
68985;SDS011;56035;37.534;-122.308;2023-12-04T03:39:03;9.77;;;3.50;;
68985;SDS011;56035;37.534;-122.308;2023-12-04T03:41:29;11.55;;;3.10;;
68985;SDS011;56035;37.534;-122.308;2023-12-04T03:43:56;8.00;;;2.92;;
68985;SDS011;56035;37.534;-122.308;2023-12-04T03:46:22;8.88;;;2.80;;
68985;SDS011;56035;37.534;-122.308;2023-12-04T03:48:49;8.27;;;2.67;;
68985;SDS011;56035;37.534;-122.308;2023-12-04T03:51:15;10.32;;;3.13;;
68985;SDS011;56035;37.534;-122.308;2023-12-04T03:53:42;10.98;;;2.90;;
68985;SDS011;56035;37.534;-122.308;2023-12-04T03:56:08;8.60;;;3.03;;
68985;SDS011;56035;37.534;-122.308;2023-12-04T03:58:37;8.00;;;2.97;;
68985;SDS011;56035;37.534;-122.308;2023-12-04T04:01:04;11.38;;;3.40;;
68985;SDS011;56035;37.534;-122.308;2023-12-04T04:03:30;9.90;;;3.03;;
68985;SDS011;56035;37.534;-122.308;2023-12-04T04:08:23;8.13;;;3.13;;
68985;SDS011;56035;37.534;-122.308;2023-12-04T04:10:50;9.85;;;2.80;;
68985;SDS011;56035;37.534;-122.308;2023-12-04T04:13:16;9.75;;;2.75;;
68985;SDS011;56035;37.534;-122.308;2023-12-04T04:15:45;11.60;;;2.70;;
68985;SDS011;56035;37.534;-122.308;2023-12-04T04:18:11;9.85;;;3.00;;
68985;SDS011;56035;37.534;-122.308;2023-12-04T04:20:38;11.25;;;3.00;;
68985;SDS011;56035;37.534;-122.308;2023-12-04T04:23:04;13.45;;;3.50;;
68985;SDS011;56035;37.534;-122.308;2023-12-04T04:25:30;9.85;;;3.15;;
68985;SDS011;56035;37.534;-122.308;2023-12-04T04:27:57;12.82;;;3.10;;
68985;SDS011;56035;37.534;-122.308;2023-12-04T04:30:23;11.60;;;3.40;;
68985;SDS011;56035;37.534;-122.308;2023-12-04T04:32:49;10.45;;;3.10;;
68985;SDS011;56035;37.534;-122.308;2023-12-04T04:35:16;7.95;;;2.63;;
68985;SDS011;56035;37.534;-122.308;2023-12-04T04:37:42;11.70;;;2.90;;
68985;SDS011;56035;37.534;-122.308;2023-12-04T04:40:09;8.18;;;2.80;;
68985;SDS011;56035;37.534;-122.308;2023-12-04T04:42:35;9.40;;;2.92;;
68985;SDS011;56035;37.534;-122.308;2023-12-04T04:45:02;9.40;;;2.70;;
68985;SDS011;56035;37.534;-122.308;2023-12-04T04:47:29;8.60;;;2.97;;
68985;SDS011;56035;37.534;-122.308;2023-12-04T04:49:55;7.40;;;2.75;;
68985;SDS011;56035;37.534;-122.308;2023-12-04T04:52:21;8.85;;;2.38;;
68985;SDS011;56035;37.534;-122.308;2023-12-04T04:54:48;8.98;;;2.65;;
68985;SDS011;56035;37.534;-122.308;2023-12-04T04:57:14;7.93;;;2.45;;
68985;SDS011;56035;37.534;-122.308;2023-12-04T04:59:40;7.13;;;2.30;;
68985;SDS011;56035;37.534;-122.308;2023-12-04T05:02:07;8.63;;;2.33;;
68985;SDS011;56035;37.534;-122.308;2023-12-04T05:04:33;11.02;;;2.88;;
68985;SDS011;56035;37.534;-122.308;2023-12-04T05:07:00;7.15;;;3.25;;
68985;SDS011;56035;37.534;-122.308;2023-12-04T05:09:26;9.73;;;2.80;;
68985;SDS011;56035;37.534;-122.308;2023-12-04T05:11:52;7.03;;;2.38;;
68985;SDS011;56035;37.534;-122.308;2023-12-04T05:14:19;10.80;;;2.92;;
68985;SDS011;56035;37.534;-122.308;2023-12-04T05:16:45;9.95;;;3.25;;
68985;SDS011;56035;37.534;-122.308;2023-12-04T05:19:12;8.15;;;3.28;;
68985;SDS011;56035;37.534;-122.308;2023-12-04T05:21:38;11.98;;;3.42;;
68985;SDS011;56035;37.534;-122.308;2023-12-04T05:24:04;7.88;;;2.92;;
68985;SDS011;56035;37.534;-122.308;2023-12-04T05:26:31;6.53;;;2.70;;
68985;SDS011;56035;37.534;-122.308;2023-12-04T05:28:57;7.70;;;2.38;;
68985;SDS011;56035;37.534;-122.308;2023-12-04T05:31:23;7.55;;;2.60;;
68985;SDS011;56035;37.534;-122.308;2023-12-04T05:33:50;9.55;;;3.13;;
68985;SDS011;56035;37.534;-122.308;2023-12-04T05:36:16;7.18;;;2.63;;
68985;SDS011;56035;37.534;-122.308;2023-12-04T05:38:43;8.05;;;2.65;;
68985;SDS011;56035;37.534;-122.308;2023-12-04T05:41:09;9.45;;;2.47;;
68985;SDS011;56035;37.534;-122.308;2023-12-04T05:43:35;10.20;;;2.42;;
68985;SDS011;56035;37.534;-122.308;2023-12-04T05:46:02;8.50;;;2.80;;
68985;SDS011;56035;37.534;-122.308;2023-12-04T05:48:28;7.75;;;2.72;;
68985;SDS011;56035;37.534;-122.308;2023-12-04T05:50:55;8.13;;;2.47;;
68985;SDS011;56035;37.534;-122.308;2023-12-04T05:53:21;10.32;;;2.45;;
68985;SDS011;56035;37.534;-122.308;2023-12-04T05:55:47;6.30;;;2.47;;
68985;SDS011;56035;37.534;-122.308;2023-12-04T05:58:14;9.60;;;2.58;;
68985;SDS011;56035;37.534;-122.308;2023-12-04T06:00:40;14.82;;;2.95;;
68985;SDS011;56035;37.534;-122.308;2023-12-04T06:03:06;7.03;;;2.30;;
68985;SDS011;56035;37.534;-122.308;2023-12-04T06:05:33;6.38;;;2.50;;
68985;SDS011;56035;37.534;-122.308;2023-12-04T06:07:59;6.95;;;2.35;;
68985;SDS011;56035;37.534;-122.308;2023-12-04T06:10:26;10.13;;;2.80;;
68985;SDS011;56035;37.534;-122.308;2023-12-04T06:12:52;10.80;;;3.22;;
68985;SDS011;56035;37.534;-122.308;2023-12-04T06:15:18;10.63;;;2.97;;
68985;SDS011;56035;37.534;-122.308;2023-12-04T06:17:45;13.63;;;3.53;;
68985;SDS011;56035;37.534;-122.308;2023-12-04T06:20:11;9.13;;;2.90;;
68985;SDS011;56035;37.534;-122.308;2023-12-04T06:22:38;8.95;;;2.80;;
68985;SDS011;56035;37.534;-122.308;2023-12-04T06:25:05;8.30;;;3.17;;
68985;SDS011;56035;37.534;-122.308;2023-12-04T06:29:59;8.10;;;2.80;;
68985;SDS011;56035;37.534;-122.308;2023-12-04T06:32:25;11.23;;;2.90;;
68985;SDS011;56035;37.534;-122.308;2023-12-04T06:34:52;13.30;;;3.20;;
68985;SDS011;56035;37.534;-122.308;2023-12-04T06:37:20;7.87;;;2.93;;
68985;SDS011;56035;37.534;-122.308;2023-12-04T06:39:47;7.63;;;2.83;;
68985;SDS011;56035;37.534;-122.308;2023-12-04T06:42:17;9.40;;;3.00;;
68985;SDS011;56035;37.534;-122.308;2023-12-04T06:44:43;13.15;;;2.92;;
68985;SDS011;56035;37.534;-122.308;2023-12-04T06:47:10;8.20;;;3.10;;
68985;SDS011;56035;37.534;-122.308;2023-12-04T06:49:37;9.90;;;2.93;;
68985;SDS011;56035;37.534;-122.308;2023-12-04T06:52:04;11.52;;;2.65;;
68985;SDS011;56035;37.534;-122.308;2023-12-04T06:54:31;10.68;;;2.78;;
68985;SDS011;56035;37.534;-122.308;2023-12-04T06:56:57;8.70;;;2.63;;
68985;SDS011;56035;37.534;-122.308;2023-12-04T06:59:24;12.18;;;3.42;;
68985;SDS011;56035;37.534;-122.308;2023-12-04T07:01:50;7.40;;;2.95;;
68985;SDS011;56035;37.534;-122.308;2023-12-04T07:04:17;9.85;;;2.83;;
68985;SDS011;56035;37.534;-122.308;2023-12-04T07:06:46;8.47;;;2.70;;
68985;SDS011;56035;37.534;-122.308;2023-12-04T07:09:13;9.87;;;2.77;;
68985;SDS011;56035;37.534;-122.308;2023-12-04T07:14:06;8.60;;;3.10;;
68985;SDS011;56035;37.534;-122.308;2023-12-04T07:16:38;9.05;;;2.90;;
68985;SDS011;56035;37.534;-122.308;2023-12-04T07:19:08;8.70;;;3.13;;
68985;SDS011;56035;37.534;-122.308;2023-12-04T07:21:35;12.73;;;3.17;;
68985;SDS011;56035;37.534;-122.308;2023-12-04T07:24:02;7.27;;;3.00;;
68985;SDS011;56035;37.534;-122.308;2023-12-04T07:26:30;12.20;;;3.28;;
68985;SDS011;56035;37.534;-122.308;2023-12-04T07:28:57;9.10;;;3.00;;
68985;SDS011;56035;37.534;-122.308;2023-12-04T07:31:24;11.23;;;3.38;;
68985;SDS011;56035;37.534;-122.308;2023-12-04T07:33:54;9.27;;;3.23;;
68985;SDS011;56035;37.534;-122.308;2023-12-04T07:36:21;8.33;;;3.37;;
68985;SDS011;56035;37.534;-122.308;2023-12-04T07:38:47;9.75;;;3.17;;
68985;SDS011;56035;37.534;-122.308;2023-12-04T07:41:14;7.20;;;3.30;;
68985;SDS011;56035;37.534;-122.308;2023-12-04T07:43:41;9.82;;;3.35;;
68985;SDS011;56035;37.534;-122.308;2023-12-04T07:48:39;14.10;;;3.07;;
68985;SDS011;56035;37.534;-122.308;2023-12-04T07:51:05;12.25;;;3.28;;
68985;SDS011;56035;37.534;-122.308;2023-12-04T07:53:32;14.03;;;3.30;;
68985;SDS011;56035;37.534;-122.308;2023-12-04T07:56:02;12.98;;;3.22;;
68985;SDS011;56035;37.534;-122.308;2023-12-04T07:58:29;9.00;;;3.40;;
68985;SDS011;56035;37.534;-122.308;2023-12-04T08:00:56;11.47;;;3.60;;
68985;SDS011;56035;37.534;-122.308;2023-12-04T08:03:23;10.07;;;3.63;;
68985;SDS011;56035;37.534;-122.308;2023-12-04T08:05:50;18.88;;;3.72;;
68985;SDS011;56035;37.534;-122.308;2023-12-04T08:08:20;13.07;;;3.50;;
68985;SDS011;56035;37.534;-122.308;2023-12-04T08:10:47;16.52;;;4.05;;
68985;SDS011;56035;37.534;-122.308;2023-12-04T08:13:13;9.32;;;3.67;;
68985;SDS011;56035;37.534;-122.308;2023-12-04T08:15:40;13.60;;;3.47;;
68985;SDS011;56035;37.534;-122.308;2023-12-04T08:18:07;10.73;;;3.60;;
68985;SDS011;56035;37.534;-122.308;2023-12-04T08:20:33;12.55;;;3.85;;
68985;SDS011;56035;37.534;-122.308;2023-12-04T08:23:00;13.65;;;4.90;;
68985;SDS011;56035;37.534;-122.308;2023-12-04T08:25:26;13.10;;;3.65;;
68985;SDS011;56035;37.534;-122.308;2023-12-04T08:27:52;16.17;;;3.63;;
68985;SDS011;56035;37.534;-122.308;2023-12-04T08:30:39;13.83;;;3.67;;
68985;SDS011;56035;37.534;-122.308;2023-12-04T08:33:05;19.88;;;3.80;;
68985;SDS011;56035;37.534;-122.308;2023-12-04T08:35:32;12.90;;;4.13;;
68985;SDS011;56035;37.534;-122.308;2023-12-04T08:37:58;14.50;;;3.90;;
68985;SDS011;56035;37.534;-122.308;2023-12-04T08:40:24;11.68;;;3.70;;
68985;SDS011;56035;37.534;-122.308;2023-12-04T08:42:51;12.98;;;4.00;;
68985;SDS011;56035;37.534;-122.308;2023-12-04T08:45:17;9.50;;;3.95;;
68985;SDS011;56035;37.534;-122.308;2023-12-04T08:47:44;12.02;;;3.53;;
68985;SDS011;56035;37.534;-122.308;2023-12-04T08:50:11;14.20;;;3.87;;
68985;SDS011;56035;37.534;-122.308;2023-12-04T08:52:37;10.88;;;3.50;;
68985;SDS011;56035;37.534;-122.308;2023-12-04T08:55:07;10.53;;;3.73;;
68985;SDS011;56035;37.534;-122.308;2023-12-04T08:57:33;10.27;;;3.90;;
68985;SDS011;56035;37.534;-122.308;2023-12-04T08:59:59;17.70;;;3.38;;
68985;SDS011;56035;37.534;-122.308;2023-12-04T09:02:26;9.75;;;3.60;;
68985;SDS011;56035;37.534;-122.308;2023-12-04T09:04:52;12.23;;;4.00;;
68985;SDS011;56035;37.534;-122.308;2023-12-04T09:07:18;10.98;;;3.75;;
68985;SDS011;56035;37.534;-122.308;2023-12-04T09:09:45;11.18;;;3.67;;
68985;SDS011;56035;37.534;-122.308;2023-12-04T09:12:11;11.10;;;3.42;;
68985;SDS011;56035;37.534;-122.308;2023-12-04T09:14:38;10.23;;;3.70;;
68985;SDS011;56035;37.534;-122.308;2023-12-04T09:17:04;10.38;;;3.70;;
68985;SDS011;56035;37.534;-122.308;2023-12-04T09:19:31;11.63;;;3.30;;
68985;SDS011;56035;37.534;-122.308;2023-12-04T09:21:57;8.30;;;3.55;;
68985;SDS011;56035;37.534;-122.308;2023-12-04T09:24:24;8.70;;;3.13;;
68985;SDS011;56035;37.534;-122.308;2023-12-04T09:26:51;11.45;;;3.28;;
68985;SDS011;56035;37.534;-122.308;2023-12-04T09:29:17;9.80;;;3.92;;
68985;SDS011;56035;37.534;-122.308;2023-12-04T09:31:44;13.60;;;3.03;;
68985;SDS011;56035;37.534;-122.308;2023-12-04T09:34:10;12.27;;;3.88;;
68985;SDS011;56035;37.534;-122.308;2023-12-04T09:36:36;12.95;;;3.90;;
68985;SDS011;56035;37.534;-122.308;2023-12-04T09:39:03;9.80;;;3.00;;
68985;SDS011;56035;37.534;-122.308;2023-12-04T09:41:29;15.93;;;3.95;;
68985;SDS011;56035;37.534;-122.308;2023-12-04T09:43:56;11.43;;;3.20;;
68985;SDS011;56035;37.534;-122.308;2023-12-04T09:46:23;9.95;;;3.53;;
68985;SDS011;56035;37.534;-122.308;2023-12-04T09:48:49;10.93;;;3.20;;
68985;SDS011;56035;37.534;-122.308;2023-12-04T09:51:16;15.47;;;3.60;;
68985;SDS011;56035;37.534;-122.308;2023-12-04T09:53:46;16.30;;;3.80;;
68985;SDS011;56035;37.534;-122.308;2023-12-04T09:56:13;11.80;;;3.50;;
68985;SDS011;56035;37.534;-122.308;2023-12-04T09:58:43;13.57;;;3.40;;
68985;SDS011;56035;37.534;-122.308;2023-12-04T10:01:11;15.17;;;4.07;;
68985;SDS011;56035;37.534;-122.308;2023-12-04T10:03:37;14.73;;;4.07;;
68985;SDS011;56035;37.534;-122.308;2023-12-04T10:06:04;15.18;;;4.43;;
68985;SDS011;56035;37.534;-122.308;2023-12-04T10:08:31;12.43;;;3.45;;
68985;SDS011;56035;37.534;-122.308;2023-12-04T10:10:57;13.00;;;3.63;;
68985;SDS011;56035;37.534;-122.308;2023-12-04T10:13:24;12.75;;;3.47;;
68985;SDS011;56035;37.534;-122.308;2023-12-04T10:15:51;12.13;;;3.45;;
68985;SDS011;56035;37.534;-122.308;2023-12-04T10:18:26;14.68;;;3.50;;
68985;SDS011;56035;37.534;-122.308;2023-12-04T10:20:55;11.83;;;3.70;;
68985;SDS011;56035;37.534;-122.308;2023-12-04T10:23:22;17.20;;;3.60;;
68985;SDS011;56035;37.534;-122.308;2023-12-04T10:26:02;9.97;;;3.50;;
68985;SDS011;56035;37.534;-122.308;2023-12-04T10:28:29;13.97;;;3.43;;
68985;SDS011;56035;37.534;-122.308;2023-12-04T10:30:56;14.27;;;3.63;;
68985;SDS011;56035;37.534;-122.308;2023-12-04T10:33:24;9.70;;;3.30;;
68985;SDS011;56035;37.534;-122.308;2023-12-04T10:35:54;14.43;;;3.70;;
68985;SDS011;56035;37.534;-122.308;2023-12-04T10:38:23;9.30;;;3.50;;
68985;SDS011;56035;37.534;-122.308;2023-12-04T10:40:49;9.23;;;3.60;;
68985;SDS011;56035;37.534;-122.308;2023-12-04T10:48:11;12.77;;;3.85;;
68985;SDS011;56035;37.534;-122.308;2023-12-04T10:50:38;10.10;;;3.33;;
68985;SDS011;56035;37.534;-122.308;2023-12-04T10:53:06;8.70;;;3.23;;
68985;SDS011;56035;37.534;-122.308;2023-12-04T10:55:52;9.93;;;3.20;;
68985;SDS011;56035;37.534;-122.308;2023-12-04T10:58:21;12.50;;;3.40;;
68985;SDS011;56035;37.534;-122.308;2023-12-04T11:00:53;9.63;;;3.07;;
68985;SDS011;56035;37.534;-122.308;2023-12-04T11:03:26;10.98;;;3.08;;
68985;SDS011;56035;37.534;-122.308;2023-12-04T11:05:59;8.25;;;2.72;;
68985;SDS011;56035;37.534;-122.308;2023-12-04T11:08:29;10.93;;;3.67;;
68985;SDS011;56035;37.534;-122.308;2023-12-04T11:11:02;8.70;;;3.37;;
68985;SDS011;56035;37.534;-122.308;2023-12-04T11:13:32;9.63;;;3.17;;
68985;SDS011;56035;37.534;-122.308;2023-12-04T11:16:06;7.97;;;2.90;;
68985;SDS011;56035;37.534;-122.308;2023-12-04T11:18:39;14.03;;;3.17;;
68985;SDS011;56035;37.534;-122.308;2023-12-04T11:21:09;11.37;;;3.67;;
68985;SDS011;56035;37.534;-122.308;2023-12-04T11:23:36;11.37;;;3.27;;
68985;SDS011;56035;37.534;-122.308;2023-12-04T11:26:04;9.37;;;3.20;;
68985;SDS011;56035;37.534;-122.308;2023-12-04T11:28:31;15.03;;;4.00;;
68985;SDS011;56035;37.534;-122.308;2023-12-04T11:30:59;6.90;;;3.03;;
68985;SDS011;56035;37.534;-122.308;2023-12-04T11:33:26;13.37;;;3.07;;
68985;SDS011;56035;37.534;-122.308;2023-12-04T11:35:53;9.98;;;3.50;;
68985;SDS011;56035;37.534;-122.308;2023-12-04T11:38:34;11.93;;;3.10;;
68985;SDS011;56035;37.534;-122.308;2023-12-04T11:41:14;7.37;;;2.87;;
68985;SDS011;56035;37.534;-122.308;2023-12-04T11:43:45;10.73;;;3.33;;
68985;SDS011;56035;37.534;-122.308;2023-12-04T11:46:25;11.63;;;3.13;;
68985;SDS011;56035;37.534;-122.308;2023-12-04T11:48:55;14.52;;;3.17;;
68985;SDS011;56035;37.534;-122.308;2023-12-04T11:54:08;7.43;;;3.00;;
68985;SDS011;56035;37.534;-122.308;2023-12-04T11:56:35;7.03;;;2.87;;
68985;SDS011;56035;37.534;-122.308;2023-12-04T11:59:05;8.68;;;2.70;;
68985;SDS011;56035;37.534;-122.308;2023-12-04T12:01:38;12.90;;;3.17;;
68985;SDS011;56035;37.534;-122.308;2023-12-04T12:04:07;11.13;;;3.10;;
68985;SDS011;56035;37.534;-122.308;2023-12-04T12:06:35;10.00;;;3.00;;
68985;SDS011;56035;37.534;-122.308;2023-12-04T12:09:02;10.52;;;3.30;;
68985;SDS011;56035;37.534;-122.308;2023-12-04T12:11:28;10.07;;;3.10;;
68985;SDS011;56035;37.534;-122.308;2023-12-04T12:13:54;10.25;;;2.88;;
68985;SDS011;56035;37.534;-122.308;2023-12-04T12:16:21;10.73;;;3.13;;
68985;SDS011;56035;37.534;-122.308;2023-12-04T12:18:47;9.10;;;3.00;;
68985;SDS011;56035;37.534;-122.308;2023-12-04T12:21:14;7.03;;;3.00;;
68985;SDS011;56035;37.534;-122.308;2023-12-04T12:23:40;8.50;;;2.97;;
68985;SDS011;56035;37.534;-122.308;2023-12-04T12:26:07;12.70;;;2.90;;
68985;SDS011;56035;37.534;-122.308;2023-12-04T12:28:35;8.30;;;3.20;;
68985;SDS011;56035;37.534;-122.308;2023-12-04T12:31:02;11.05;;;3.05;;
68985;SDS011;56035;37.534;-122.308;2023-12-04T12:33:29;13.70;;;3.47;;
68985;SDS011;56035;37.534;-122.308;2023-12-04T12:35:56;9.80;;;3.17;;
68985;SDS011;56035;37.534;-122.308;2023-12-04T12:38:23;10.30;;;2.87;;
68985;SDS011;56035;37.534;-122.308;2023-12-04T12:43:16;10.10;;;2.80;;
68985;SDS011;56035;37.534;-122.308;2023-12-04T12:45:48;9.23;;;2.73;;
68985;SDS011;56035;37.534;-122.308;2023-12-04T12:48:15;9.25;;;2.80;;
68985;SDS011;56035;37.534;-122.308;2023-12-04T12:50:42;8.53;;;2.80;;
68985;SDS011;56035;37.534;-122.308;2023-12-04T12:53:12;6.23;;;2.80;;
68985;SDS011;56035;37.534;-122.308;2023-12-04T12:55:42;10.77;;;3.10;;
68985;SDS011;56035;37.534;-122.308;2023-12-04T12:58:12;9.83;;;2.80;;
68985;SDS011;56035;37.534;-122.308;2023-12-04T13:00:39;10.20;;;3.30;;
68985;SDS011;56035;37.534;-122.308;2023-12-04T13:03:15;9.40;;;2.87;;
68985;SDS011;56035;37.534;-122.308;2023-12-04T13:05:44;10.07;;;3.37;;
68985;SDS011;56035;37.534;-122.308;2023-12-04T13:08:11;6.80;;;2.55;;
68985;SDS011;56035;37.534;-122.308;2023-12-04T13:10:37;8.95;;;3.10;;
68985;SDS011;56035;37.534;-122.308;2023-12-04T13:13:12;14.63;;;3.50;;
68985;SDS011;56035;37.534;-122.308;2023-12-04T13:15:39;8.57;;;2.70;;
68985;SDS011;56035;37.534;-122.308;2023-12-04T13:18:09;6.50;;;2.60;;
68985;SDS011;56035;37.534;-122.308;2023-12-04T13:23:02;8.33;;;2.63;;
68985;SDS011;56035;37.534;-122.308;2023-12-04T13:25:28;6.90;;;2.90;;
68985;SDS011;56035;37.534;-122.308;2023-12-04T13:27:54;11.80;;;2.92;;
68985;SDS011;56035;37.534;-122.308;2023-12-04T13:30:21;8.27;;;2.92;;
68985;SDS011;56035;37.534;-122.308;2023-12-04T13:32:47;8.02;;;2.50;;
68985;SDS011;56035;37.534;-122.308;2023-12-04T13:35:15;8.00;;;2.83;;
68985;SDS011;56035;37.534;-122.308;2023-12-04T13:37:42;8.40;;;2.70;;
68985;SDS011;56035;37.534;-122.308;2023-12-04T13:40:08;7.55;;;2.88;;
68985;SDS011;56035;37.534;-122.308;2023-12-04T13:42:41;9.80;;;2.67;;
68985;SDS011;56035;37.534;-122.308;2023-12-04T13:45:26;7.20;;;2.73;;
68985;SDS011;56035;37.534;-122.308;2023-12-04T13:47:52;8.50;;;2.88;;
68985;SDS011;56035;37.534;-122.308;2023-12-04T13:50:18;11.70;;;2.70;;
68985;SDS011;56035;37.534;-122.308;2023-12-04T13:52:46;7.40;;;2.70;;
68985;SDS011;56035;37.534;-122.308;2023-12-04T13:55:20;11.93;;;2.60;;
68985;SDS011;56035;37.534;-122.308;2023-12-04T13:57:59;10.77;;;3.50;;
68985;SDS011;56035;37.534;-122.308;2023-12-04T14:00:36;10.43;;;2.90;;
68985;SDS011;56035;37.534;-122.308;2023-12-04T14:03:03;9.40;;;2.90;;
68985;SDS011;56035;37.534;-122.308;2023-12-04T14:05:30;9.80;;;2.80;;
68985;SDS011;56035;37.534;-122.308;2023-12-04T14:07:57;9.00;;;2.60;;
68985;SDS011;56035;37.534;-122.308;2023-12-04T14:10:24;8.45;;;3.20;;
68985;SDS011;56035;37.534;-122.308;2023-12-04T14:12:51;10.97;;;2.83;;
68985;SDS011;56035;37.534;-122.308;2023-12-04T14:15:18;8.90;;;2.78;;
68985;SDS011;56035;37.534;-122.308;2023-12-04T14:17:45;10.57;;;3.20;;
68985;SDS011;56035;37.534;-122.308;2023-12-04T14:20:14;10.67;;;3.40;;
68985;SDS011;56035;37.534;-122.308;2023-12-04T14:22:44;9.30;;;2.70;;
68985;SDS011;56035;37.534;-122.308;2023-12-04T14:25:14;9.87;;;3.17;;
68985;SDS011;56035;37.534;-122.308;2023-12-04T14:27:42;10.00;;;3.27;;
68985;SDS011;56035;37.534;-122.308;2023-12-04T14:30:10;8.90;;;3.23;;
68985;SDS011;56035;37.534;-122.308;2023-12-04T14:32:37;11.57;;;3.03;;
68985;SDS011;56035;37.534;-122.308;2023-12-04T14:35:03;13.13;;;3.45;;
68985;SDS011;56035;37.534;-122.308;2023-12-04T14:37:30;11.65;;;3.45;;
68985;SDS011;56035;37.534;-122.308;2023-12-04T14:39:56;11.65;;;3.72;;
68985;SDS011;56035;37.534;-122.308;2023-12-04T14:42:23;15.65;;;3.97;;
68985;SDS011;56035;37.534;-122.308;2023-12-04T14:44:49;14.10;;;3.78;;